sensor_id;sensor_type;location;lat;lon;timestamp;pressure;altitude;pressure_sealevel;temperature;humidity
77381;BME280;66439;50.106;10.996;2023-09-18T00:00:34;98272.13;;;20.75;62.37
77381;BME280;66439;50.106;10.996;2023-09-18T00:02:57;98272.41;;;20.70;62.51
77381;BME280;66439;50.106;10.996;2023-09-18T00:05:00;98264.94;;;20.67;62.44
77381;BME280;66439;50.106;10.996;2023-09-18T00:07:04;98258.17;;;20.65;62.63
77381;BME280;66439;50.106;10.996;2023-09-18T00:09:07;98255.56;;;20.64;62.63
77381;BME280;66439;50.106;10.996;2023-09-18T00:11:14;98245.89;;;20.61;62.63
77381;BME280;66439;50.106;10.996;2023-09-18T00:13:17;98243.11;;;20.59;62.57
77381;BME280;66439;50.106;10.996;2023-09-18T00:15:20;98237.98;;;20.52;62.85
77381;BME280;66439;50.106;10.996;2023-09-18T00:17:24;98239.73;;;20.44;63.07
77381;BME280;66439;50.106;10.996;2023-09-18T00:19:29;98231.67;;;20.35;63.26
77381;BME280;66439;50.106;10.996;2023-09-18T00:21:32;98232.42;;;20.29;63.64
77381;BME280;66439;50.106;10.996;2023-09-18T00:23:35;98231.14;;;20.23;63.74
77381;BME280;66439;50.106;10.996;2023-09-18T00:25:38;98230.73;;;20.18;63.88
77381;BME280;66439;50.106;10.996;2023-09-18T00:27:43;98232.64;;;20.15;64.04
77381;BME280;66439;50.106;10.996;2023-09-18T00:29:46;98236.23;;;20.13;64.24
77381;BME280;66439;50.106;10.996;2023-09-18T00:31:49;98238.80;;;20.09;64.52
77381;BME280;66439;50.106;10.996;2023-09-18T00:33:52;98234.36;;;20.03;64.52
77381;BME280;66439;50.106;10.996;2023-09-18T00:35:55;98233.83;;;20.04;64.69
77381;BME280;66439;50.106;10.996;2023-09-18T00:37:58;98225.56;;;20.03;64.77
77381;BME280;66439;50.106;10.996;2023-09-18T00:40:01;98222.21;;;20.02;64.76
77381;BME280;66439;50.106;10.996;2023-09-18T00:42:04;98221.90;;;20.03;64.81
77381;BME280;66439;50.106;10.996;2023-09-18T00:44:07;98221.60;;;20.05;64.57
77381;BME280;66439;50.106;10.996;2023-09-18T00:46:11;98217.36;;;20.09;64.64
77381;BME280;66439;50.106;10.996;2023-09-18T00:48:15;98212.58;;;20.10;64.52
77381;BME280;66439;50.106;10.996;2023-09-18T00:50:18;98210.63;;;20.10;64.41
77381;BME280;66439;50.106;10.996;2023-09-18T00:52:22;98212.11;;;20.07;64.68
77381;BME280;66439;50.106;10.996;2023-09-18T00:54:26;98202.35;;;20.01;64.58
77381;BME280;66439;50.106;10.996;2023-09-18T00:56:29;98195.41;;;19.96;64.78
77381;BME280;66439;50.106;10.996;2023-09-18T00:58:32;98193.55;;;19.96;64.77
77381;BME280;66439;50.106;10.996;2023-09-18T01:00:35;98198.90;;;19.96;64.55
77381;BME280;66439;50.106;10.996;2023-09-18T01:02:38;98202.05;;;19.97;64.60
77381;BME280;66439;50.106;10.996;2023-09-18T01:04:42;98198.75;;;19.96;64.70
77381;BME280;66439;50.106;10.996;2023-09-18T01:06:46;98194.52;;;19.88;64.77
77381;BME280;66439;50.106;10.996;2023-09-18T01:08:52;98186.27;;;19.87;64.89
77381;BME280;66439;50.106;10.996;2023-09-18T01:11:05;98183.61;;;19.85;64.69
77381;BME280;66439;50.106;10.996;2023-09-18T01:13:12;98182.68;;;19.79;65.22
77381;BME280;66439;50.106;10.996;2023-09-18T01:15:33;98183.84;;;19.75;64.99
77381;BME280;66439;50.106;10.996;2023-09-18T01:17:38;98182.76;;;19.75;65.10
77381;BME280;66439;50.106;10.996;2023-09-18T01:19:45;98185.81;;;19.74;65.22
77381;BME280;66439;50.106;10.996;2023-09-18T01:21:49;98186.06;;;19.78;65.05
77381;BME280;66439;50.106;10.996;2023-09-18T01:23:52;98182.73;;;19.84;64.82
77381;BME280;66439;50.106;10.996;2023-09-18T01:25:54;98175.28;;;19.89;64.68
77381;BME280;66439;50.106;10.996;2023-09-18T01:27:57;98173.64;;;19.93;64.60
77381;BME280;66439;50.106;10.996;2023-09-18T01:30:01;98175.88;;;19.91;64.71
77381;BME280;66439;50.106;10.996;2023-09-18T01:32:04;98173.64;;;19.94;64.65
77381;BME280;66439;50.106;10.996;2023-09-18T01:34:08;98170.27;;;19.95;64.50
77381;BME280;66439;50.106;10.996;2023-09-18T01:36:11;98177.20;;;19.94;64.55
77381;BME280;66439;50.106;10.996;2023-09-18T01:38:14;98175.63;;;19.93;64.48
77381;BME280;66439;50.106;10.996;2023-09-18T01:40:17;98172.80;;;19.91;64.36
77381;BME280;66439;50.106;10.996;2023-09-18T01:42:20;98165.20;;;19.89;64.55
77381;BME280;66439;50.106;10.996;2023-09-18T01:44:25;98166.94;;;19.87;64.43
77381;BME280;66439;50.106;10.996;2023-09-18T01:46:28;98167.49;;;19.82;64.57
77381;BME280;66439;50.106;10.996;2023-09-18T01:48:31;98168.28;;;19.79;64.49
77381;BME280;66439;50.106;10.996;2023-09-18T01:50:36;98164.96;;;19.81;64.46
77381;BME280;66439;50.106;10.996;2023-09-18T01:52:39;98165.85;;;19.85;64.44
77381;BME280;66439;50.106;10.996;2023-09-18T01:54:44;98164.29;;;19.84;64.48
77381;BME280;66439;50.106;10.996;2023-09-18T01:56:47;98161.79;;;19.82;64.44
77381;BME280;66439;50.106;10.996;2023-09-18T01:58:50;98156.83;;;19.83;64.32
77381;BME280;66439;50.106;10.996;2023-09-18T02:00:53;98155.69;;;19.82;64.35
77381;BME280;66439;50.106;10.996;2023-09-18T02:02:57;98156.98;;;19.83;64.51
77381;BME280;66439;50.106;10.996;2023-09-18T02:05:20;98156.34;;;19.83;64.31
77381;BME280;66439;50.106;10.996;2023-09-18T02:07:23;98155.03;;;19.81;64.37
77381;BME280;66439;50.106;10.996;2023-09-18T02:09:26;98155.92;;;19.81;64.39
77381;BME280;66439;50.106;10.996;2023-09-18T02:11:29;98157.17;;;19.81;64.12
77381;BME280;66439;50.106;10.996;2023-09-18T02:13:32;98155.13;;;19.80;64.26
77381;BME280;66439;50.106;10.996;2023-09-18T02:15:37;98149.13;;;19.79;64.21
77381;BME280;66439;50.106;10.996;2023-09-18T02:17:40;98142.98;;;19.79;63.96
77381;BME280;66439;50.106;10.996;2023-09-18T02:19:43;98141.64;;;19.80;64.01
77381;BME280;66439;50.106;10.996;2023-09-18T02:21:45;98140.35;;;19.80;64.19
77381;BME280;66439;50.106;10.996;2023-09-18T02:23:52;98133.65;;;19.79;64.32
77381;BME280;66439;50.106;10.996;2023-09-18T02:25:56;98125.55;;;19.77;63.97
77381;BME280;66439;50.106;10.996;2023-09-18T02:28:00;98123.15;;;19.75;64.08
77381;BME280;66439;50.106;10.996;2023-09-18T02:30:03;98119.89;;;19.73;64.23
77381;BME280;66439;50.106;10.996;2023-09-18T02:32:06;98125.22;;;19.71;64.08
77381;BME280;66439;50.106;10.996;2023-09-18T02:34:10;98124.88;;;19.68;64.17
77381;BME280;66439;50.106;10.996;2023-09-18T02:36:14;98123.73;;;19.66;64.20
77381;BME280;66439;50.106;10.996;2023-09-18T02:38:17;98123.34;;;19.66;64.39
77381;BME280;66439;50.106;10.996;2023-09-18T02:40:20;98120.15;;;19.64;64.45
77381;BME280;66439;50.106;10.996;2023-09-18T02:42:23;98115.79;;;19.66;64.23
77381;BME280;66439;50.106;10.996;2023-09-18T02:44:27;98115.57;;;19.66;64.38
77381;BME280;66439;50.106;10.996;2023-09-18T02:46:30;98111.45;;;19.64;64.50
77381;BME280;66439;50.106;10.996;2023-09-18T02:48:35;98110.48;;;19.62;64.20
77381;BME280;66439;50.106;10.996;2023-09-18T02:50:38;98111.31;;;19.61;64.45
77381;BME280;66439;50.106;10.996;2023-09-18T02:52:41;98108.75;;;19.59;64.42
77381;BME280;66439;50.106;10.996;2023-09-18T02:54:45;98107.81;;;19.57;64.59
77381;BME280;66439;50.106;10.996;2023-09-18T02:56:47;98108.92;;;19.55;64.43
77381;BME280;66439;50.106;10.996;2023-09-18T02:58:51;98114.84;;;19.53;64.60
77381;BME280;66439;50.106;10.996;2023-09-18T03:00:55;98112.23;;;19.50;64.52
77381;BME280;66439;50.106;10.996;2023-09-18T03:02:58;98108.59;;;19.50;64.83
77381;BME280;66439;50.106;10.996;2023-09-18T03:05:02;98104.02;;;19.48;64.51
77381;BME280;66439;50.106;10.996;2023-09-18T03:07:05;98098.30;;;19.49;64.74
77381;BME280;66439;50.106;10.996;2023-09-18T03:09:08;98096.36;;;19.50;64.77
77381;BME280;66439;50.106;10.996;2023-09-18T03:11:12;98096.20;;;19.50;64.59
77381;BME280;66439;50.106;10.996;2023-09-18T03:13:16;98095.06;;;19.48;64.72
77381;BME280;66439;50.106;10.996;2023-09-18T03:15:19;98093.93;;;19.48;64.76
77381;BME280;66439;50.106;10.996;2023-09-18T03:17:21;98090.53;;;19.47;64.75
77381;BME280;66439;50.106;10.996;2023-09-18T03:19:24;98088.66;;;19.44;64.82
77381;BME280;66439;50.106;10.996;2023-09-18T03:21:28;98085.51;;;19.41;64.85
77381;BME280;66439;50.106;10.996;2023-09-18T03:23:31;98082.71;;;19.36;64.77
77381;BME280;66439;50.106;10.996;2023-09-18T03:25:35;98076.63;;;19.31;64.81
77381;BME280;66439;50.106;10.996;2023-09-18T03:27:55;98070.51;;;19.22;65.25
77381;BME280;66439;50.106;10.996;2023-09-18T03:30:03;98063.77;;;19.16;65.32
77381;BME280;66439;50.106;10.996;2023-09-18T03:32:05;98063.23;;;19.12;65.62
77381;BME280;66439;50.106;10.996;2023-09-18T03:34:08;98058.71;;;19.12;65.44
77381;BME280;66439;50.106;10.996;2023-09-18T03:36:11;98049.63;;;19.14;65.57
77381;BME280;66439;50.106;10.996;2023-09-18T03:38:15;98041.52;;;19.16;65.61
77381;BME280;66439;50.106;10.996;2023-09-18T03:40:18;98035.91;;;19.16;65.48
77381;BME280;66439;50.106;10.996;2023-09-18T03:42:21;98032.16;;;19.19;65.57
77381;BME280;66439;50.106;10.996;2023-09-18T03:44:24;98025.93;;;19.21;65.41
77381;BME280;66439;50.106;10.996;2023-09-18T03:46:27;98018.61;;;19.23;65.54
77381;BME280;66439;50.106;10.996;2023-09-18T03:48:30;98019.96;;;19.23;65.38
77381;BME280;66439;50.106;10.996;2023-09-18T03:50:38;98027.32;;;19.25;65.45
77381;BME280;66439;50.106;10.996;2023-09-18T03:52:43;98028.27;;;19.23;65.43
77381;BME280;66439;50.106;10.996;2023-09-18T03:54:46;98038.25;;;19.20;65.27
77381;BME280;66439;50.106;10.996;2023-09-18T03:56:51;98036.88;;;19.21;65.64
77381;BME280;66439;50.106;10.996;2023-09-18T03:58:54;98035.02;;;19.20;65.57
77381;BME280;66439;50.106;10.996;2023-09-18T04:00:57;98027.63;;;19.20;65.65
77381;BME280;66439;50.106;10.996;2023-09-18T04:03:00;98028.98;;;19.18;65.65
77381;BME280;66439;50.106;10.996;2023-09-18T04:05:04;98029.68;;;19.19;65.57
77381;BME280;66439;50.106;10.996;2023-09-18T04:07:08;98025.54;;;19.21;65.58
77381;BME280;66439;50.106;10.996;2023-09-18T04:09:11;98026.73;;;19.20;65.70
77381;BME280;66439;50.106;10.996;2023-09-18T04:11:14;98027.55;;;19.15;65.67
77381;BME280;66439;50.106;10.996;2023-09-18T04:13:16;98025.50;;;19.13;65.90
77381;BME280;66439;50.106;10.996;2023-09-18T04:15:19;98030.14;;;19.16;65.74
77381;BME280;66439;50.106;10.996;2023-09-18T04:17:23;98036.05;;;19.20;65.57
77381;BME280;66439;50.106;10.996;2023-09-18T04:19:26;98038.88;;;19.23;65.71
77381;BME280;66439;50.106;10.996;2023-09-18T04:21:29;98037.67;;;19.26;65.61
77381;BME280;66439;50.106;10.996;2023-09-18T04:23:32;98028.91;;;19.27;65.40
77381;BME280;66439;50.106;10.996;2023-09-18T04:25:37;98025.17;;;19.27;65.38
77381;BME280;66439;50.106;10.996;2023-09-18T04:27:41;98016.18;;;19.27;65.39
77381;BME280;66439;50.106;10.996;2023-09-18T04:29:43;98010.36;;;19.27;65.33
77381;BME280;66439;50.106;10.996;2023-09-18T04:31:46;98024.23;;;19.25;65.28
77381;BME280;66439;50.106;10.996;2023-09-18T04:33:49;98027.77;;;19.23;65.40
77381;BME280;66439;50.106;10.996;2023-09-18T04:35:52;98041.30;;;19.21;65.34
77381;BME280;66439;50.106;10.996;2023-09-18T04:37:55;98096.48;;;19.22;65.61
77381;BME280;66439;50.106;10.996;2023-09-18T04:39:59;98111.05;;;19.19;65.69
77381;BME280;66439;50.106;10.996;2023-09-18T04:42:01;98099.69;;;19.20;65.70
77381;BME280;66439;50.106;10.996;2023-09-18T04:44:08;98092.61;;;19.24;65.88
77381;BME280;66439;50.106;10.996;2023-09-18T04:46:12;98095.02;;;19.28;65.76
77381;BME280;66439;50.106;10.996;2023-09-18T04:48:15;98084.54;;;19.31;65.77
77381;BME280;66439;50.106;10.996;2023-09-18T04:50:18;98075.30;;;19.35;65.73
77381;BME280;66439;50.106;10.996;2023-09-18T04:52:21;98073.45;;;19.36;65.69
77381;BME280;66439;50.106;10.996;2023-09-18T04:54:26;98070.02;;;19.39;65.76
77381;BME280;66439;50.106;10.996;2023-09-18T04:56:29;98061.79;;;19.41;65.70
77381;BME280;66439;50.106;10.996;2023-09-18T04:58:33;98077.08;;;19.44;65.53
77381;BME280;66439;50.106;10.996;2023-09-18T05:00:35;98071.85;;;19.45;65.65
77381;BME280;66439;50.106;10.996;2023-09-18T05:02:40;98045.83;;;19.47;65.54
77381;BME280;66439;50.106;10.996;2023-09-18T05:04:43;98028.72;;;19.51;65.36
77381;BME280;66439;50.106;10.996;2023-09-18T05:06:46;98016.45;;;19.54;65.43
77381;BME280;66439;50.106;10.996;2023-09-18T05:08:49;98020.92;;;19.53;65.65
77381;BME280;66439;50.106;10.996;2023-09-18T05:10:52;98026.63;;;19.52;65.67
77381;BME280;66439;50.106;10.996;2023-09-18T05:12:55;98034.14;;;19.53;65.71
77381;BME280;66439;50.106;10.996;2023-09-18T05:15:02;98035.30;;;19.56;65.55
77381;BME280;66439;50.106;10.996;2023-09-18T05:17:10;98033.13;;;19.56;65.49
77381;BME280;66439;50.106;10.996;2023-09-18T05:19:14;98038.14;;;19.57;65.35
77381;BME280;66439;50.106;10.996;2023-09-18T05:21:20;98037.81;;;19.56;65.58
77381;BME280;66439;50.106;10.996;2023-09-18T05:23:27;98034.77;;;19.52;65.50
77381;BME280;66439;50.106;10.996;2023-09-18T05:25:30;98028.44;;;19.51;65.48
77381;BME280;66439;50.106;10.996;2023-09-18T05:27:37;98027.76;;;19.52;65.18
77381;BME280;66439;50.106;10.996;2023-09-18T05:29:46;98033.34;;;19.57;65.28
77381;BME280;66439;50.106;10.996;2023-09-18T05:31:49;98038.79;;;19.58;65.19
77381;BME280;66439;50.106;10.996;2023-09-18T05:33:53;98034.13;;;19.59;65.31
77381;BME280;66439;50.106;10.996;2023-09-18T05:35:56;98034.98;;;19.59;65.32
77381;BME280;66439;50.106;10.996;2023-09-18T05:38:06;98042.01;;;19.60;65.32
77381;BME280;66439;50.106;10.996;2023-09-18T05:40:11;98050.59;;;19.61;65.24
77381;BME280;66439;50.106;10.996;2023-09-18T05:42:14;98058.87;;;19.62;65.25
77381;BME280;66439;50.106;10.996;2023-09-18T05:44:17;98080.50;;;19.63;65.32
77381;BME280;66439;50.106;10.996;2023-09-18T05:46:20;98087.79;;;19.63;65.33
77381;BME280;66439;50.106;10.996;2023-09-18T05:48:24;98086.71;;;19.64;65.35
77381;BME280;66439;50.106;10.996;2023-09-18T05:50:27;98083.39;;;19.68;65.15
77381;BME280;66439;50.106;10.996;2023-09-18T05:52:33;98080.63;;;19.72;65.20
77381;BME280;66439;50.106;10.996;2023-09-18T05:54:36;98081.71;;;19.72;65.28
77381;BME280;66439;50.106;10.996;2023-09-18T05:56:39;98082.86;;;19.74;65.22
77381;BME280;66439;50.106;10.996;2023-09-18T05:58:42;98088.85;;;19.76;65.18
77381;BME280;66439;50.106;10.996;2023-09-18T06:00:45;98087.25;;;19.77;65.26
77381;BME280;66439;50.106;10.996;2023-09-18T06:02:48;98086.45;;;19.79;65.11
77381;BME280;66439;50.106;10.996;2023-09-18T06:04:55;98081.25;;;19.81;64.99
77381;BME280;66439;50.106;10.996;2023-09-18T06:07:09;98089.67;;;19.82;65.06
77381;BME280;66439;50.106;10.996;2023-09-18T06:09:12;98093.28;;;19.83;65.09
77381;BME280;66439;50.106;10.996;2023-09-18T06:11:15;98096.25;;;19.84;65.08
77381;BME280;66439;50.106;10.996;2023-09-18T06:13:18;98089.22;;;19.88;65.11
77381;BME280;66439;50.106;10.996;2023-09-18T06:15:21;98080.45;;;19.91;65.00
77381;BME280;66439;50.106;10.996;2023-09-18T06:17:24;98076.95;;;19.95;65.03
77381;BME280;66439;50.106;10.996;2023-09-18T06:19:27;98067.38;;;19.97;65.24
77381;BME280;66439;50.106;10.996;2023-09-18T06:21:30;98057.59;;;20.00;65.16
77381;BME280;66439;50.106;10.996;2023-09-18T06:23:33;98058.29;;;20.02;64.88
77381;BME280;66439;50.106;10.996;2023-09-18T06:25:37;98061.98;;;20.05;65.02
77381;BME280;66439;50.106;10.996;2023-09-18T06:27:41;98054.89;;;20.07;65.06
77381;BME280;66439;50.106;10.996;2023-09-18T06:29:44;98050.79;;;20.09;64.94
77381;BME280;66439;50.106;10.996;2023-09-18T06:31:47;98055.65;;;20.11;64.92
77381;BME280;66439;50.106;10.996;2023-09-18T06:33:50;98056.16;;;20.12;65.10
77381;BME280;66439;50.106;10.996;2023-09-18T06:35:53;98056.06;;;20.15;65.08
77381;BME280;66439;50.106;10.996;2023-09-18T06:37:57;98066.05;;;20.17;64.98
77381;BME280;66439;50.106;10.996;2023-09-18T06:40:01;98066.91;;;20.15;65.07
77381;BME280;66439;50.106;10.996;2023-09-18T06:42:07;98072.27;;;20.15;65.29
77381;BME280;66439;50.106;10.996;2023-09-18T06:44:09;98079.05;;;20.15;65.37
77381;BME280;66439;50.106;10.996;2023-09-18T06:46:12;98085.15;;;20.16;65.18
77381;BME280;66439;50.106;10.996;2023-09-18T06:48:15;98084.45;;;20.16;65.19
77381;BME280;66439;50.106;10.996;2023-09-18T06:50:19;98081.54;;;20.17;65.27
77381;BME280;66439;50.106;10.996;2023-09-18T06:52:22;98079.00;;;20.19;65.30
77381;BME280;66439;50.106;10.996;2023-09-18T06:54:25;98072.17;;;20.21;65.10
77381;BME280;66439;50.106;10.996;2023-09-18T06:56:27;98064.38;;;20.26;65.27
77381;BME280;66439;50.106;10.996;2023-09-18T06:58:30;98057.83;;;20.31;65.01
77381;BME280;66439;50.106;10.996;2023-09-18T07:00:34;98060.96;;;20.34;65.00
77381;BME280;66439;50.106;10.996;2023-09-18T07:02:36;98062.86;;;20.36;65.15
77381;BME280;66439;50.106;10.996;2023-09-18T07:04:41;98059.14;;;20.37;64.83
77381;BME280;66439;50.106;10.996;2023-09-18T07:06:48;98042.56;;;20.38;64.75
77381;BME280;66439;50.106;10.996;2023-09-18T07:08:51;98019.35;;;20.38;64.75
77381;BME280;66439;50.106;10.996;2023-09-18T07:10:56;98016.13;;;20.38;64.75
77381;BME280;66439;50.106;10.996;2023-09-18T07:12:59;98017.77;;;20.35;64.78
77381;BME280;66439;50.106;10.996;2023-09-18T07:15:03;98017.44;;;20.31;64.84
77381;BME280;66439;50.106;10.996;2023-09-18T07:17:08;98013.21;;;20.27;65.15
77381;BME280;66439;50.106;10.996;2023-09-18T07:19:12;98003.86;;;20.26;65.24
77381;BME280;66439;50.106;10.996;2023-09-18T07:21:19;97997.70;;;20.24;65.35
77381;BME280;66439;50.106;10.996;2023-09-18T07:23:22;98001.76;;;20.24;65.49
77381;BME280;66439;50.106;10.996;2023-09-18T07:25:25;97997.67;;;20.27;65.38
77381;BME280;66439;50.106;10.996;2023-09-18T07:27:28;97993.89;;;20.30;65.20
77381;BME280;66439;50.106;10.996;2023-09-18T07:29:31;97990.98;;;20.33;65.34
77381;BME280;66439;50.106;10.996;2023-09-18T07:31:34;97999.48;;;20.34;65.30
77381;BME280;66439;50.106;10.996;2023-09-18T07:33:37;97994.60;;;20.32;65.65
77381;BME280;66439;50.106;10.996;2023-09-18T07:35:41;97996.16;;;20.33;65.62
77381;BME280;66439;50.106;10.996;2023-09-18T07:37:44;97987.42;;;20.33;65.56
77381;BME280;66439;50.106;10.996;2023-09-18T07:39:49;97985.93;;;20.36;65.68
77381;BME280;66439;50.106;10.996;2023-09-18T07:41:52;97982.44;;;20.38;65.55
77381;BME280;66439;50.106;10.996;2023-09-18T07:43:59;97978.52;;;20.43;65.70
77381;BME280;66439;50.106;10.996;2023-09-18T07:46:02;97984.73;;;20.45;65.61
77381;BME280;66439;50.106;10.996;2023-09-18T07:48:06;97990.66;;;20.47;65.55
77381;BME280;66439;50.106;10.996;2023-09-18T07:50:09;97997.24;;;20.50;65.66
77381;BME280;66439;50.106;10.996;2023-09-18T07:52:12;97995.52;;;20.53;65.46
77381;BME280;66439;50.106;10.996;2023-09-18T07:54:15;97997.64;;;20.53;65.49
77381;BME280;66439;50.106;10.996;2023-09-18T07:56:18;97996.55;;;20.53;65.58
77381;BME280;66439;50.106;10.996;2023-09-18T07:58:22;97999.96;;;20.58;65.70
77381;BME280;66439;50.106;10.996;2023-09-18T08:00:25;98003.13;;;20.63;65.40
77381;BME280;66439;50.106;10.996;2023-09-18T08:02:28;98010.27;;;20.72;65.50
77381;BME280;66439;50.106;10.996;2023-09-18T08:04:32;98016.29;;;20.80;65.53
77381;BME280;66439;50.106;10.996;2023-09-18T08:06:35;98019.35;;;20.87;65.32
77381;BME280;66439;50.106;10.996;2023-09-18T08:08:38;98033.23;;;20.94;65.14
77381;BME280;66439;50.106;10.996;2023-09-18T08:10:42;98036.11;;;20.97;65.04
77381;BME280;66439;50.106;10.996;2023-09-18T08:12:45;98047.25;;;21.02;65.43
77381;BME280;66439;50.106;10.996;2023-09-18T08:14:47;98046.39;;;21.06;65.03
77381;BME280;66439;50.106;10.996;2023-09-18T08:16:59;98049.27;;;21.11;65.11
77381;BME280;66439;50.106;10.996;2023-09-18T08:19:02;98054.58;;;21.15;64.97
77381;BME280;66439;50.106;10.996;2023-09-18T08:21:07;98052.95;;;21.14;64.81
77381;BME280;66439;50.106;10.996;2023-09-18T08:23:12;98061.98;;;21.16;64.73
77381;BME280;66439;50.106;10.996;2023-09-18T08:25:15;98073.11;;;21.17;64.73
77381;BME280;66439;50.106;10.996;2023-09-18T08:27:18;98076.74;;;21.20;64.86
77381;BME280;66439;50.106;10.996;2023-09-18T08:29:22;98080.16;;;21.23;64.75
77381;BME280;66439;50.106;10.996;2023-09-18T08:31:26;98078.81;;;21.26;64.56
77381;BME280;66439;50.106;10.996;2023-09-18T08:33:30;98088.45;;;21.31;64.79
77381;BME280;66439;50.106;10.996;2023-09-18T08:35:33;98088.44;;;21.35;64.36
77381;BME280;66439;50.106;10.996;2023-09-18T08:37:36;98090.92;;;21.41;64.46
77381;BME280;66439;50.106;10.996;2023-09-18T08:39:40;98092.39;;;21.46;64.22
77381;BME280;66439;50.106;10.996;2023-09-18T08:41:44;98100.19;;;21.52;64.43
77381;BME280;66439;50.106;10.996;2023-09-18T08:43:51;98102.30;;;21.57;64.15
77381;BME280;66439;50.106;10.996;2023-09-18T08:45:55;98116.52;;;21.61;63.84
77381;BME280;66439;50.106;10.996;2023-09-18T08:48:05;98108.05;;;21.64;63.71
77381;BME280;66439;50.106;10.996;2023-09-18T08:50:10;98104.70;;;21.70;63.52
77381;BME280;66439;50.106;10.996;2023-09-18T08:52:15;98103.11;;;21.79;63.30
77381;BME280;66439;50.106;10.996;2023-09-18T08:54:18;98103.49;;;21.89;63.05
77381;BME280;66439;50.106;10.996;2023-09-18T08:56:21;98103.54;;;21.99;63.37
77381;BME280;66439;50.106;10.996;2023-09-18T08:58:26;98099.48;;;22.07;63.44
77381;BME280;66439;50.106;10.996;2023-09-18T09:00:29;98097.86;;;22.14;63.21
77381;BME280;66439;50.106;10.996;2023-09-18T09:02:32;98094.57;;;22.20;62.76
77381;BME280;66439;50.106;10.996;2023-09-18T09:04:35;98096.61;;;22.28;62.85
77381;BME280;66439;50.106;10.996;2023-09-18T09:06:38;98093.66;;;22.33;62.64
77381;BME280;66439;50.106;10.996;2023-09-18T09:08:41;98087.64;;;22.40;63.00
77381;BME280;66439;50.106;10.996;2023-09-18T09:10:44;98085.23;;;22.47;62.84
77381;BME280;66439;50.106;10.996;2023-09-18T09:13:05;98082.54;;;22.59;62.65
77381;BME280;66439;50.106;10.996;2023-09-18T09:15:09;98083.91;;;22.70;62.28
77381;BME280;66439;50.106;10.996;2023-09-18T09:17:18;98080.58;;;22.75;61.87
77381;BME280;66439;50.106;10.996;2023-09-18T09:19:29;98080.39;;;22.79;60.78
77381;BME280;66439;50.106;10.996;2023-09-18T09:21:41;98082.27;;;22.82;60.64
77381;BME280;66439;50.106;10.996;2023-09-18T09:23:49;98081.66;;;22.87;60.57
77381;BME280;66439;50.106;10.996;2023-09-18T09:26:13;98080.95;;;22.91;60.33
77381;BME280;66439;50.106;10.996;2023-09-18T09:28:29;98084.98;;;22.93;59.54
77381;BME280;66439;50.106;10.996;2023-09-18T09:30:35;98081.66;;;22.94;59.23
77381;BME280;66439;50.106;10.996;2023-09-18T09:32:47;98075.10;;;22.95;59.48
77381;BME280;66439;50.106;10.996;2023-09-18T09:34:57;98071.33;;;22.99;59.88
77381;BME280;66439;50.106;10.996;2023-09-18T09:37:05;98060.75;;;23.02;59.27
77381;BME280;66439;50.106;10.996;2023-09-18T09:39:10;98060.52;;;23.04;59.16
77381;BME280;66439;50.106;10.996;2023-09-18T09:41:14;98055.04;;;23.05;58.86
77381;BME280;66439;50.106;10.996;2023-09-18T09:43:16;98056.39;;;23.07;58.71
77381;BME280;66439;50.106;10.996;2023-09-18T09:45:23;98055.63;;;23.08;58.71
77381;BME280;66439;50.106;10.996;2023-09-18T09:47:26;98054.14;;;23.10;58.41
77381;BME280;66439;50.106;10.996;2023-09-18T09:49:29;98054.78;;;23.13;58.31
77381;BME280;66439;50.106;10.996;2023-09-18T09:51:33;98056.39;;;23.15;58.12
77381;BME280;66439;50.106;10.996;2023-09-18T09:53:46;98053.18;;;23.15;58.25
77381;BME280;66439;50.106;10.996;2023-09-18T09:55:54;98046.71;;;23.18;58.47
77381;BME280;66439;50.106;10.996;2023-09-18T09:58:02;98043.39;;;23.20;58.34
77381;BME280;66439;50.106;10.996;2023-09-18T10:00:06;98039.86;;;23.20;58.18
77381;BME280;66439;50.106;10.996;2023-09-18T10:02:24;98035.05;;;23.20;58.07
77381;BME280;66439;50.106;10.996;2023-09-18T10:04:29;98032.50;;;23.20;58.35
77381;BME280;66439;50.106;10.996;2023-09-18T10:06:35;98030.80;;;23.21;58.19
77381;BME280;66439;50.106;10.996;2023-09-18T10:08:39;98027.21;;;23.23;58.25
77381;BME280;66439;50.106;10.996;2023-09-18T10:10:47;98019.88;;;23.24;57.99
77381;BME280;66439;50.106;10.996;2023-09-18T10:12:50;98021.25;;;23.23;57.34
77381;BME280;66439;50.106;10.996;2023-09-18T10:14:55;98019.96;;;23.22;57.38
77381;BME280;66439;50.106;10.996;2023-09-18T10:17:15;98022.98;;;23.22;57.06
77381;BME280;66439;50.106;10.996;2023-09-18T10:19:49;98032.80;;;23.23;56.79
77381;BME280;66439;50.106;10.996;2023-09-18T10:22:08;98038.09;;;23.26;56.66
77381;BME280;66439;50.106;10.996;2023-09-18T10:24:25;98044.13;;;23.29;56.61
77381;BME280;66439;50.106;10.996;2023-09-18T10:26:29;98042.54;;;23.34;56.67
77381;BME280;66439;50.106;10.996;2023-09-18T10:28:33;98041.21;;;23.37;56.33
77381;BME280;66439;50.106;10.996;2023-09-18T10:30:36;98043.27;;;23.38;56.24
77381;BME280;66439;50.106;10.996;2023-09-18T10:32:41;98046.61;;;23.40;56.08
77381;BME280;66439;50.106;10.996;2023-09-18T10:34:44;98052.58;;;23.41;56.06
77381;BME280;66439;50.106;10.996;2023-09-18T10:36:52;98052.69;;;23.41;56.21
77381;BME280;66439;50.106;10.996;2023-09-18T10:38:56;98055.02;;;23.41;56.19
77381;BME280;66439;50.106;10.996;2023-09-18T10:41:01;98066.80;;;23.42;56.10
77381;BME280;66439;50.106;10.996;2023-09-18T10:43:04;98075.73;;;23.42;55.94
77381;BME280;66439;50.106;10.996;2023-09-18T10:45:12;98077.40;;;23.44;55.87
77381;BME280;66439;50.106;10.996;2023-09-18T10:47:19;98079.39;;;23.45;55.60
77381;BME280;66439;50.106;10.996;2023-09-18T10:49:24;98083.68;;;23.44;54.90
77381;BME280;66439;50.106;10.996;2023-09-18T10:51:27;98094.36;;;23.44;55.09